createdAt,value
2017-11-29T00:01:54.664Z,15.37
2017-11-29T00:04:22.146Z,20.87
2017-11-29T00:06:52.949Z,15.43
2017-11-29T00:09:20.405Z,18.07
2017-11-29T00:11:47.900Z,13.80
2017-11-29T00:14:15.706Z,18.60
2017-11-29T00:16:43.423Z,17.90
2017-11-29T00:19:10.934Z,16.70
2017-11-29T00:21:38.445Z,17.67
2017-11-29T00:24:05.905Z,16.47
2017-11-29T00:26:34.363Z,17.50
2017-11-29T00:29:01.825Z,22.50
2017-11-29T00:31:29.333Z,17.90
2017-11-29T00:33:56.785Z,18.40
2017-11-29T00:36:24.294Z,15.33
2017-11-29T00:38:51.799Z,18.37
2017-11-29T00:41:19.277Z,15.80
2017-11-29T00:43:46.744Z,17.40
2017-11-29T00:46:14.967Z,18.50
2017-11-29T00:48:42.480Z,18.60
2017-11-29T00:51:09.974Z,19.80
2017-11-29T00:53:37.471Z,16.73
2017-11-29T00:56:04.931Z,18.47
2017-11-29T00:58:33.462Z,19.50
2017-11-29T01:01:00.931Z,16.30
2017-11-29T01:03:28.381Z,20.30
2017-11-29T01:05:55.856Z,17.10
2017-11-29T01:08:23.316Z,17.17
2017-11-29T01:10:50.894Z,20.50
2017-11-29T01:13:18.394Z,20.37
2017-11-29T01:15:45.877Z,18.30
2017-11-29T01:18:13.371Z,21.00
2017-11-29T01:20:40.830Z,17.80
2017-11-29T01:23:08.297Z,15.07
2017-11-29T01:25:35.770Z,16.27
2017-11-29T01:28:03.264Z,19.07
2017-11-29T01:30:30.773Z,18.77
2017-11-29T01:32:58.223Z,18.57
2017-11-29T01:35:25.691Z,16.10
2017-11-29T01:37:53.176Z,16.67
2017-11-29T01:40:20.632Z,17.80
2017-11-29T01:42:48.206Z,17.67
2017-11-29T01:45:15.769Z,15.33
2017-11-29T01:47:43.256Z,16.90
2017-11-29T01:50:10.809Z,19.83
2017-11-29T01:52:38.604Z,18.03
2017-11-29T01:55:06.080Z,16.80
2017-11-29T01:57:33.596Z,20.50
2017-11-29T02:00:01.127Z,19.80
2017-11-29T02:02:28.608Z,20.53
2017-11-29T02:04:56.116Z,14.33
2017-11-29T02:07:23.581Z,19.30
2017-11-29T02:09:51.036Z,22.17
2017-11-29T02:12:18.557Z,20.20
2017-11-29T02:14:46.028Z,17.17
2017-11-29T02:17:13.515Z,15.50
2017-11-29T02:19:40.989Z,22.83
2017-11-29T02:22:08.445Z,20.20
2017-11-29T02:24:35.973Z,21.80
2017-11-29T02:27:03.443Z,19.53
2017-11-29T02:29:30.904Z,21.77
2017-11-29T02:31:58.385Z,15.40
2017-11-29T02:34:25.917Z,19.07
2017-11-29T02:36:53.420Z,19.17
2017-11-29T02:39:20.893Z,21.37
2017-11-29T02:41:59.955Z,18.23
2017-11-29T02:44:27.435Z,20.50
2017-11-29T02:46:54.888Z,18.63
2017-11-29T02:49:22.371Z,20.40
2017-11-29T02:51:49.824Z,24.60
2017-11-29T02:54:17.285Z,20.23
2017-11-29T02:56:44.770Z,23.13
2017-11-29T02:59:12.251Z,25.50
2017-11-29T03:01:39.738Z,19.27
2017-11-29T03:04:07.235Z,26.53
2017-11-29T03:06:35.766Z,16.27
2017-11-29T03:09:03.268Z,15.77
2017-11-29T03:11:30.724Z,23.17
2017-11-29T03:13:58.184Z,23.63
2017-11-29T03:16:25.648Z,17.87
2017-11-29T03:18:53.761Z,21.43
2017-11-29T03:21:21.254Z,23.73
2017-11-29T03:23:48.730Z,22.00
2017-11-29T03:26:16.969Z,27.77
2017-11-29T03:28:44.441Z,24.27
2017-11-29T03:31:11.918Z,21.10
2017-11-29T03:33:39.408Z,19.40
2017-11-29T03:36:07.513Z,20.87
2017-11-29T03:38:36.310Z,18.40
2017-11-29T03:41:03.773Z,19.27
2017-11-29T03:43:31.233Z,22.13
2017-11-29T03:45:58.707Z,21.57
2017-11-29T03:48:26.294Z,24.13
2017-11-29T03:50:53.764Z,24.10
2017-11-29T03:53:21.241Z,22.87
2017-11-29T03:55:48.692Z,20.13
2017-11-29T03:58:16.488Z,22.13
2017-11-29T04:00:43.972Z,22.53
2017-11-29T04:03:11.441Z,25.47
2017-11-29T04:05:39.408Z,24.60
2017-11-29T04:08:06.894Z,23.93
2017-11-29T04:10:35.041Z,20.43
2017-11-29T04:13:02.558Z,23.87
2017-11-29T04:15:30.034Z,22.47
2017-11-29T04:17:57.512Z,25.13
2017-11-29T04:20:25.025Z,19.50
2017-11-29T04:22:52.488Z,22.30
2017-11-29T04:25:19.990Z,22.27
2017-11-29T04:27:47.463Z,20.40
2017-11-29T04:30:14.931Z,22.47
2017-11-29T04:32:43.019Z,21.00
2017-11-29T04:35:10.513Z,24.00
2017-11-29T04:37:37.973Z,22.97
2017-11-29T04:40:05.444Z,26.10
2017-11-29T04:42:33.363Z,22.43
2017-11-29T04:45:00.846Z,23.97
2017-11-29T04:47:28.547Z,21.90
2017-11-29T04:49:56.010Z,24.27
2017-11-29T04:52:23.489Z,24.90
2017-11-29T04:54:51.108Z,22.87
2017-11-29T04:57:18.613Z,23.13
2017-11-29T04:59:46.145Z,27.03
2017-11-29T05:02:13.639Z,25.23
2017-11-29T05:04:41.104Z,31.87
2017-11-29T05:07:08.625Z,27.60
2017-11-29T05:09:36.101Z,27.83
2017-11-29T05:12:03.612Z,30.60
2017-11-29T05:14:31.100Z,28.40
2017-11-29T05:16:58.580Z,26.17
2017-11-29T05:19:26.077Z,30.33
2017-11-29T05:21:53.542Z,24.20
2017-11-29T05:24:21.025Z,27.80
2017-11-29T05:26:48.511Z,26.10
2017-11-29T05:29:16.030Z,33.67
2017-11-29T05:31:43.542Z,27.30
2017-11-29T05:34:11.025Z,30.73
2017-11-29T05:36:38.546Z,29.73
2017-11-29T05:39:06.027Z,31.77
2017-11-29T05:41:33.502Z,32.97
2017-11-29T05:44:00.999Z,29.67
2017-11-29T05:46:28.531Z,29.83
2017-11-29T05:48:56.021Z,27.70
2017-11-29T05:51:23.571Z,32.73
2017-11-29T05:53:51.084Z,33.60
2017-11-29T05:56:18.680Z,33.03
2017-11-29T05:58:46.128Z,39.47
2017-11-29T06:01:13.608Z,29.70
2017-11-29T06:03:41.264Z,47.77
2017-11-29T06:06:08.731Z,31.87
2017-11-29T06:08:37.890Z,27.60
2017-11-29T06:11:05.391Z,34.40
2017-11-29T06:13:32.851Z,33.97
2017-11-29T06:16:00.304Z,34.10
2017-11-29T06:18:28.562Z,31.73
2017-11-29T06:20:56.068Z,27.47
2017-11-29T06:23:23.576Z,39.40
2017-11-29T06:25:51.045Z,48.93
2017-11-29T06:28:18.538Z,36.27
2017-11-29T06:30:48.367Z,34.30
2017-11-29T06:33:16.785Z,33.43
2017-11-29T06:35:44.241Z,34.70
2017-11-29T06:38:11.821Z,34.37
2017-11-29T06:40:39.309Z,35.03
2017-11-29T06:43:06.772Z,31.77
2017-11-29T06:45:34.265Z,32.60
2017-11-29T06:48:01.805Z,36.13
2017-11-29T06:50:29.274Z,35.47
2017-11-29T06:52:56.795Z,42.37
2017-11-29T06:55:24.266Z,35.87
2017-11-29T06:57:51.771Z,46.33
2017-11-29T07:00:19.289Z,38.53
2017-11-29T07:02:46.797Z,33.70
2017-11-29T07:05:14.426Z,35.17
2017-11-29T07:07:41.966Z,37.60
2017-11-29T07:10:09.445Z,34.30
2017-11-29T07:12:36.967Z,37.17
2017-11-29T07:15:04.445Z,30.57
2017-11-29T07:17:32.003Z,34.20
2017-11-29T07:19:59.465Z,37.33
2017-11-29T07:22:26.948Z,41.50
2017-11-29T07:24:54.405Z,40.93
2017-11-29T07:27:21.863Z,32.60
2017-11-29T07:29:49.372Z,36.00
2017-11-29T07:32:17.561Z,36.97
2017-11-29T07:34:45.036Z,41.40
2017-11-29T07:37:12.515Z,38.27
2017-11-29T07:39:39.966Z,37.73
2017-11-29T07:42:07.440Z,40.80
2017-11-29T07:44:35.049Z,41.00
2017-11-29T07:47:02.541Z,34.90
2017-11-29T07:49:30.196Z,37.20
2017-11-29T07:51:57.936Z,35.60
2017-11-29T07:54:25.549Z,42.07
2017-11-29T07:56:53.010Z,35.93
2017-11-29T07:59:20.488Z,31.10
2017-11-29T08:01:47.973Z,39.47
2017-11-29T08:04:15.766Z,36.87
2017-11-29T08:06:43.491Z,33.73
2017-11-29T08:09:10.960Z,35.30
2017-11-29T08:11:38.694Z,41.83
2017-11-29T08:14:06.249Z,35.77
2017-11-29T08:16:33.914Z,34.67
2017-11-29T08:19:01.375Z,31.63
2017-11-29T08:21:28.846Z,39.43
2017-11-29T08:23:56.309Z,35.17
2017-11-29T08:26:23.758Z,32.80
2017-11-29T08:28:51.271Z,30.90
2017-11-29T08:31:18.745Z,36.37
2017-11-29T08:33:46.222Z,33.83
2017-11-29T08:36:13.711Z,35.77
2017-11-29T08:38:41.342Z,36.23
2017-11-29T08:41:08.826Z,34.63
2017-11-29T08:43:36.308Z,29.10
2017-11-29T08:46:03.814Z,31.20
2017-11-29T08:48:31.640Z,29.50
2017-11-29T08:50:59.115Z,32.13
2017-11-29T08:53:26.625Z,28.87
2017-11-29T08:55:54.109Z,29.13
2017-11-29T08:58:21.591Z,32.07
2017-11-29T09:00:49.610Z,32.63
2017-11-29T09:03:17.989Z,38.90
2017-11-29T09:05:45.477Z,32.27
2017-11-29T09:08:12.938Z,35.37
2017-11-29T09:10:40.445Z,38.40
2017-11-29T09:13:08.140Z,36.97
2017-11-29T09:15:35.605Z,44.00
2017-11-29T09:18:03.144Z,36.50
2017-11-29T09:20:30.605Z,39.47
2017-11-29T09:22:58.897Z,40.77
2017-11-29T09:25:26.411Z,36.63
2017-11-29T09:27:53.883Z,37.70
2017-11-29T09:30:21.376Z,39.90
2017-11-29T09:32:48.843Z,41.80
2017-11-29T09:35:16.291Z,39.67
2017-11-29T09:37:43.812Z,43.00
2017-11-29T09:40:11.417Z,46.17
2017-11-29T09:42:38.889Z,44.47
2017-11-29T09:45:06.405Z,48.10
2017-11-29T09:47:33.937Z,37.30
2017-11-29T09:50:01.454Z,57.20
2017-11-29T09:52:28.957Z,41.00
2017-11-29T09:54:56.481Z,40.07
2017-11-29T09:57:23.997Z,42.70
2017-11-29T09:59:51.547Z,40.20
2017-11-29T10:02:19.214Z,45.50
2017-11-29T10:04:46.700Z,46.93
2017-11-29T10:07:14.270Z,49.47
2017-11-29T10:09:41.802Z,42.40
2017-11-29T10:12:09.313Z,44.43
2017-11-29T10:14:36.902Z,47.53
2017-11-29T10:17:04.381Z,50.60
2017-11-29T10:19:31.872Z,48.17
2017-11-29T10:21:59.332Z,51.10
2017-11-29T10:24:26.914Z,47.23
2017-11-29T10:26:54.410Z,42.10
2017-11-29T10:29:21.940Z,41.73
2017-11-29T10:31:49.404Z,45.80
2017-11-29T10:34:19.092Z,45.27
2017-11-29T10:36:46.914Z,47.60
2017-11-29T10:39:14.382Z,43.53
2017-11-29T10:41:41.895Z,43.93
2017-11-29T10:44:09.380Z,32.83
2017-11-29T10:46:37.592Z,40.53
2017-11-29T10:49:05.104Z,37.30
2017-11-29T10:51:32.571Z,37.13
2017-11-29T10:54:00.034Z,40.70
2017-11-29T10:56:27.596Z,43.20
2017-11-29T10:58:55.120Z,42.50
2017-11-29T11:01:22.580Z,35.40
2017-11-29T11:03:50.054Z,37.73
2017-11-29T11:06:17.631Z,44.10
2017-11-29T11:08:45.145Z,34.93
2017-11-29T11:11:12.789Z,41.10
2017-11-29T11:13:40.306Z,38.77
2017-11-29T11:16:07.824Z,35.23
2017-11-29T11:18:36.125Z,36.90
2017-11-29T11:21:03.651Z,39.83
2017-11-29T11:23:31.814Z,41.77
2017-11-29T11:25:59.305Z,41.27
2017-11-29T11:28:26.857Z,36.47
2017-11-29T11:30:54.878Z,35.17
2017-11-29T11:33:22.421Z,36.40
2017-11-29T11:35:49.885Z,35.43
2017-11-29T11:38:17.556Z,36.97
2017-11-29T11:40:45.083Z,33.70
2017-11-29T11:43:12.545Z,34.77
2017-11-29T11:45:40.028Z,37.80
2017-11-29T11:48:07.485Z,34.60
2017-11-29T11:50:35.699Z,33.30
2017-11-29T11:53:03.187Z,27.37
2017-11-29T11:55:30.730Z,31.10
2017-11-29T11:57:58.213Z,33.07
2017-11-29T12:00:25.865Z,34.27
2017-11-29T12:02:53.352Z,30.73
2017-11-29T12:05:20.830Z,27.37
2017-11-29T12:07:48.307Z,30.53
2017-11-29T12:10:17.831Z,32.00
2017-11-29T12:12:45.945Z,35.20
2017-11-29T12:15:13.438Z,30.87
2017-11-29T12:17:40.940Z,34.43
2017-11-29T12:20:08.432Z,35.47
2017-11-29T12:22:37.024Z,28.83
2017-11-29T12:25:04.490Z,29.17
2017-11-29T12:27:31.959Z,28.70
2017-11-29T12:29:59.429Z,29.83
2017-11-29T12:32:26.983Z,31.73
2017-11-29T12:34:54.552Z,32.17
2017-11-29T12:37:22.016Z,36.17
2017-11-29T12:39:49.560Z,34.50
2017-11-29T12:42:17.093Z,32.30
2017-11-29T12:44:44.605Z,33.87
2017-11-29T12:47:12.122Z,32.90
2017-11-29T12:49:51.248Z,31.20
2017-11-29T12:52:18.703Z,32.73
2017-11-29T12:54:46.160Z,37.17
2017-11-29T12:57:13.640Z,37.47
2017-11-29T12:59:41.106Z,35.40
2017-11-29T13:02:08.582Z,35.47
2017-11-29T13:04:36.966Z,39.43
2017-11-29T13:07:04.421Z,39.97
2017-11-29T13:09:31.939Z,33.20
2017-11-29T13:11:59.427Z,38.33
2017-11-29T13:14:26.881Z,44.07
2017-11-29T13:16:54.370Z,36.00
2017-11-29T13:19:21.902Z,41.70
2017-11-29T13:21:49.360Z,43.90
2017-11-29T13:24:16.876Z,42.10
2017-11-29T13:26:44.341Z,48.80
2017-11-29T13:29:11.797Z,51.83
2017-11-29T13:31:39.309Z,51.47
2017-11-29T13:34:06.796Z,43.30
2017-11-29T13:36:34.279Z,42.77
2017-11-29T13:39:01.836Z,41.23
2017-11-29T13:41:29.310Z,45.13
2017-11-29T13:43:56.774Z,38.03
2017-11-29T13:46:24.253Z,41.57
2017-11-29T13:48:54.057Z,40.93
2017-11-29T13:51:21.617Z,47.23
2017-11-29T13:53:49.094Z,39.97
2017-11-29T13:56:16.741Z,38.27
2017-11-29T13:58:44.209Z,40.80
2017-11-29T14:01:11.701Z,46.23
2017-11-29T14:03:39.184Z,40.03
2017-11-29T14:06:06.654Z,41.53
2017-11-29T14:08:34.364Z,44.57
2017-11-29T14:11:01.848Z,41.20
2017-11-29T14:13:29.486Z,41.67
2017-11-29T14:15:56.956Z,43.00
2017-11-29T14:18:24.581Z,37.93
2017-11-29T14:20:52.079Z,40.47
2017-11-29T14:23:19.534Z,40.60
2017-11-29T14:25:47.018Z,37.80
2017-11-29T14:28:16.605Z,39.10
2017-11-29T14:30:44.257Z,41.47
2017-11-29T14:33:11.792Z,38.73
2017-11-29T14:35:39.249Z,41.93
2017-11-29T14:38:06.748Z,44.00
2017-11-29T14:40:37.237Z,39.90
2017-11-29T14:43:04.976Z,35.70
2017-11-29T14:45:32.536Z,37.50
2017-11-29T14:48:00.020Z,32.97
2017-11-29T14:50:27.469Z,39.20
2017-11-29T14:52:54.992Z,35.20
2017-11-29T14:55:22.465Z,35.57
2017-11-29T14:57:49.962Z,37.07
2017-11-29T15:00:18.785Z,39.33
2017-11-29T15:02:46.246Z,29.80
2017-11-29T15:05:13.783Z,31.60
2017-11-29T15:07:41.237Z,31.77
2017-11-29T15:10:08.695Z,38.47
2017-11-29T15:12:36.178Z,37.50
2017-11-29T15:15:03.925Z,33.20
2017-11-29T15:17:31.616Z,36.00
2017-11-29T15:19:59.060Z,37.13
2017-11-29T15:22:27.457Z,37.00
2017-11-29T15:24:54.943Z,38.87
2017-11-29T15:27:22.824Z,42.07
2017-11-29T15:29:50.304Z,38.23
2017-11-29T15:32:17.924Z,38.50
2017-11-29T15:34:45.446Z,40.70
2017-11-29T15:37:12.873Z,44.17
2017-11-29T15:39:40.372Z,42.03
2017-11-29T15:42:07.829Z,46.23
2017-11-29T15:44:39.563Z,49.83
2017-11-29T15:47:07.136Z,43.83
2017-11-29T15:49:34.632Z,42.90
2017-11-29T15:52:02.169Z,52.23
2017-11-29T15:54:30.556Z,51.17
2017-11-29T15:56:58.092Z,44.23
2017-11-29T15:59:25.577Z,50.03
2017-11-29T16:01:53.021Z,53.03
2017-11-29T16:04:21.138Z,56.60
2017-11-29T16:06:50.457Z,50.83
2017-11-29T16:09:18.748Z,58.40
2017-11-29T16:11:46.209Z,51.60
2017-11-29T16:14:13.710Z,54.70
2017-11-29T16:16:41.237Z,52.60
2017-11-29T16:19:08.776Z,57.53
2017-11-29T16:21:36.447Z,55.67
2017-11-29T16:24:04.797Z,52.03
2017-11-29T16:26:32.346Z,58.80
2017-11-29T16:28:59.938Z,57.60
2017-11-29T16:31:27.465Z,54.43
2017-11-29T16:33:54.992Z,62.47
2017-11-29T16:36:22.534Z,58.53
2017-11-29T16:38:50.013Z,57.70
2017-11-29T16:41:17.522Z,52.87
2017-11-29T16:43:45.034Z,53.40
2017-11-29T16:46:12.558Z,51.30
2017-11-29T16:48:40.068Z,59.47
2017-11-29T16:51:07.564Z,53.40
2017-11-29T16:53:35.054Z,56.73
2017-11-29T16:56:02.621Z,52.50
2017-11-29T16:58:30.187Z,49.27
2017-11-29T17:00:57.743Z,48.10
2017-11-29T17:03:25.249Z,52.60
2017-11-29T17:05:52.753Z,51.07
2017-11-29T17:08:20.258Z,51.77
2017-11-29T17:10:47.785Z,59.20
2017-11-29T17:13:15.325Z,52.20
2017-11-29T17:15:43.149Z,58.10
2017-11-29T17:18:10.629Z,57.17
2017-11-29T17:20:38.190Z,57.20
2017-11-29T17:23:05.680Z,61.07
2017-11-29T17:25:33.172Z,58.20
2017-11-29T17:28:00.684Z,57.73
2017-11-29T17:30:29.531Z,57.90
2017-11-29T17:32:57.014Z,53.67
2017-11-29T17:35:24.510Z,55.00
2017-11-29T17:37:52.004Z,55.50
2017-11-29T17:40:19.680Z,55.33
2017-11-29T17:42:47.391Z,57.00
2017-11-29T17:45:15.367Z,55.67
2017-11-29T17:47:42.858Z,64.80
2017-11-29T17:50:10.408Z,54.30
2017-11-29T17:52:38.074Z,56.47
2017-11-29T17:55:05.563Z,52.33
2017-11-29T17:57:33.185Z,52.47
2017-11-29T18:00:00.656Z,55.30
2017-11-29T18:02:28.103Z,47.83
2017-11-29T18:04:55.602Z,53.47
2017-11-29T18:07:23.076Z,47.70
2017-11-29T18:09:50.549Z,57.87
2017-11-29T18:12:18.018Z,47.10
2017-11-29T18:14:45.732Z,44.43
2017-11-29T18:17:13.268Z,47.47
2017-11-29T18:19:40.730Z,48.83
2017-11-29T18:22:08.223Z,49.90
2017-11-29T18:24:35.763Z,46.50
2017-11-29T18:27:03.278Z,45.07
2017-11-29T18:29:30.800Z,54.10
2017-11-29T18:31:58.268Z,52.53
2017-11-29T18:34:25.734Z,45.63
2017-11-29T18:36:53.230Z,49.50
2017-11-29T18:39:21.814Z,46.20
2017-11-29T18:41:49.346Z,45.40
2017-11-29T18:44:18.778Z,44.13
2017-11-29T18:46:46.471Z,44.90
2017-11-29T18:49:14.011Z,47.43
2017-11-29T18:51:41.789Z,49.87
2017-11-29T18:54:09.373Z,42.13
2017-11-29T18:56:39.034Z,51.10
2017-11-29T18:59:06.646Z,46.07
2017-11-29T19:01:34.182Z,46.80
2017-11-29T19:04:01.761Z,44.10
2017-11-29T19:06:29.385Z,45.20
2017-11-29T19:08:56.903Z,46.93
2017-11-29T19:11:24.478Z,45.23
2017-11-29T19:13:51.953Z,49.00
2017-11-29T19:16:19.438Z,43.13
2017-11-29T19:18:47.018Z,44.30
2017-11-29T19:21:14.650Z,48.20
2017-11-29T19:23:42.154Z,43.30
2017-11-29T19:26:09.798Z,44.00
2017-11-29T19:28:39.145Z,41.90
2017-11-29T19:31:06.810Z,39.43
2017-11-29T19:33:34.365Z,39.77
2017-11-29T19:36:01.913Z,28.17
2017-11-29T19:38:29.408Z,21.30
2017-11-29T19:40:56.883Z,15.67
2017-11-29T19:43:24.389Z,15.23
2017-11-29T19:45:51.865Z,12.57
2017-11-29T19:48:19.583Z,13.03
2017-11-29T19:50:47.051Z,11.93
2017-11-29T19:53:14.559Z,13.40
2017-11-29T19:55:42.048Z,14.10
2017-11-29T19:58:09.511Z,13.57
2017-11-29T20:00:37.109Z,16.10
2017-11-29T20:03:04.868Z,14.53
2017-11-29T20:05:32.366Z,14.80
2017-11-29T20:07:59.866Z,12.70
2017-11-29T20:10:27.351Z,14.20
2017-11-29T20:12:54.822Z,16.87
2017-11-29T20:15:22.591Z,12.67
2017-11-29T20:17:50.121Z,15.37
2017-11-29T20:20:19.626Z,15.20
2017-11-29T20:22:47.144Z,10.97
2017-11-29T20:25:14.601Z,12.30
2017-11-29T20:27:42.122Z,13.43
2017-11-29T20:30:09.579Z,12.37
2017-11-29T20:32:37.073Z,11.87
2017-11-29T20:35:04.663Z,12.03
2017-11-29T20:37:32.632Z,13.50
2017-11-29T20:40:00.133Z,10.10
2017-11-29T20:42:27.869Z,9.53
2017-11-29T20:44:55.413Z,9.87
2017-11-29T20:47:23.845Z,10.50
2017-11-29T20:49:51.346Z,11.57
2017-11-29T20:52:25.266Z,12.13
2017-11-29T20:54:52.897Z,13.13
2017-11-29T20:57:23.376Z,13.50
2017-11-29T20:59:50.902Z,14.93
2017-11-29T21:02:18.495Z,15.70
2017-11-29T21:04:46.022Z,18.23
2017-11-29T21:07:13.518Z,18.93
2017-11-29T21:09:40.993Z,19.60
2017-11-29T21:12:08.548Z,19.50
2017-11-29T21:14:36.158Z,24.00
2017-11-29T21:17:03.698Z,24.63
2017-11-29T21:19:31.271Z,25.57
2017-11-29T21:21:58.756Z,24.93
2017-11-29T21:24:26.413Z,24.70
2017-11-29T21:26:54.232Z,23.10
2017-11-29T21:29:21.733Z,23.70
2017-11-29T21:31:49.205Z,27.53
2017-11-29T21:34:17.747Z,25.50
2017-11-29T21:36:51.256Z,27.93
2017-11-29T21:39:23.582Z,27.17
2017-11-29T21:41:51.055Z,27.47
2017-11-29T21:44:18.525Z,27.07
2017-11-29T21:46:46.935Z,29.13
2017-11-29T21:49:14.427Z,30.63
2017-11-29T21:51:41.898Z,33.23
2017-11-29T21:54:09.372Z,29.87
2017-11-29T21:56:36.855Z,32.33
2017-11-29T21:59:04.423Z,32.53
2017-11-29T22:01:33.363Z,33.27
2017-11-29T22:04:01.137Z,30.50
2017-11-29T22:06:29.719Z,29.80
2017-11-29T22:08:57.607Z,26.80
2017-11-29T22:11:25.150Z,32.70
2017-11-29T22:13:54.009Z,30.73
2017-11-29T22:16:22.284Z,32.70
2017-11-29T22:18:51.300Z,33.23
2017-11-29T22:21:18.805Z,33.40
2017-11-29T22:23:46.294Z,33.80
2017-11-29T22:26:13.785Z,31.30
2017-11-29T22:28:41.418Z,31.17
2017-11-29T22:31:08.874Z,31.30
2017-11-29T22:33:36.352Z,35.90
2017-11-29T22:36:03.821Z,31.37
2017-11-29T22:38:31.774Z,30.07
2017-11-29T22:40:59.299Z,28.90
2017-11-29T22:43:26.761Z,32.30
2017-11-29T22:45:54.253Z,31.20
2017-11-29T22:48:21.758Z,31.73
2017-11-29T22:50:49.223Z,28.60
2017-11-29T22:53:16.701Z,30.13
2017-11-29T22:55:44.177Z,29.67
2017-11-29T22:58:11.628Z,28.03
2017-11-29T23:00:39.350Z,26.30
2017-11-29T23:03:06.847Z,30.93
2017-11-29T23:05:34.367Z,27.47
2017-11-29T23:08:01.981Z,25.90
2017-11-29T23:10:30.084Z,22.27
2017-11-29T23:12:57.563Z,26.50
2017-11-29T23:15:25.055Z,25.83
2017-11-29T23:17:52.520Z,25.37
2017-11-29T23:20:20.049Z,24.57
2017-11-29T23:22:48.516Z,25.03
2017-11-29T23:25:16.017Z,22.00
2017-11-29T23:27:43.486Z,21.90
2017-11-29T23:30:10.967Z,20.73
2017-11-29T23:32:38.465Z,24.47
2017-11-29T23:35:05.920Z,24.10
2017-11-29T23:37:33.379Z,23.03
2017-11-29T23:40:00.859Z,23.20
2017-11-29T23:42:29.355Z,23.33
2017-11-29T23:44:56.841Z,25.80
2017-11-29T23:47:24.320Z,25.27
2017-11-29T23:49:51.790Z,24.87
2017-11-29T23:52:19.272Z,26.50
2017-11-29T23:54:48.060Z,26.57
2017-11-29T23:57:15.640Z,24.70
2017-11-29T23:59:43.135Z,29.77
